sensor_id;sensor_type;location;lat;lon;timestamp;P1;durP1;ratioP1;P2;durP2;ratioP2
77826;SDS011;67016;42.508;25.678;2023-02-26T00:02:16;34.65;;;13.15;;
77826;SDS011;67016;42.508;25.678;2023-02-26T00:04:42;28.27;;;12.43;;
77826;SDS011;67016;42.508;25.678;2023-02-26T00:07:08;26.95;;;12.57;;
77826;SDS011;67016;42.508;25.678;2023-02-26T00:09:34;33.67;;;12.02;;
77826;SDS011;67016;42.508;25.678;2023-02-26T00:12:00;25.98;;;11.73;;
77826;SDS011;67016;42.508;25.678;2023-02-26T00:14:26;31.55;;;12.10;;
77826;SDS011;67016;42.508;25.678;2023-02-26T00:19:29;26.35;;;11.82;;
77826;SDS011;67016;42.508;25.678;2023-02-26T00:21:55;28.17;;;12.48;;
77826;SDS011;67016;42.508;25.678;2023-02-26T00:24:21;26.77;;;12.50;;
77826;SDS011;67016;42.508;25.678;2023-02-26T00:26:46;30.15;;;12.48;;
77826;SDS011;67016;42.508;25.678;2023-02-26T00:29:12;28.33;;;12.02;;
77826;SDS011;67016;42.508;25.678;2023-02-26T00:31:38;24.00;;;12.55;;
77826;SDS011;67016;42.508;25.678;2023-02-26T00:34:04;30.20;;;12.35;;
77826;SDS011;67016;42.508;25.678;2023-02-26T00:36:42;33.13;;;13.07;;
77826;SDS011;67016;42.508;25.678;2023-02-26T00:42:14;31.15;;;12.63;;
77826;SDS011;67016;42.508;25.678;2023-02-26T00:44:40;35.78;;;13.25;;
77826;SDS011;67016;42.508;25.678;2023-02-26T00:47:49;25.08;;;11.65;;
77826;SDS011;67016;42.508;25.678;2023-02-26T00:50:15;31.52;;;12.80;;
77826;SDS011;67016;42.508;25.678;2023-02-26T00:55:42;36.88;;;14.98;;
77826;SDS011;67016;42.508;25.678;2023-02-26T00:58:11;25.70;;;12.20;;
77826;SDS011;67016;42.508;25.678;2023-02-26T01:00:36;28.35;;;11.60;;
77826;SDS011;67016;42.508;25.678;2023-02-26T01:03:02;57.15;;;28.42;;
77826;SDS011;67016;42.508;25.678;2023-02-26T01:05:29;37.53;;;13.27;;
77826;SDS011;67016;42.508;25.678;2023-02-26T01:10:38;36.10;;;12.23;;
77826;SDS011;67016;42.508;25.678;2023-02-26T01:13:05;28.65;;;11.13;;
77826;SDS011;67016;42.508;25.678;2023-02-26T01:15:31;29.27;;;10.70;;
77826;SDS011;67016;42.508;25.678;2023-02-26T01:17:59;26.75;;;10.27;;
77826;SDS011;67016;42.508;25.678;2023-02-26T01:20:41;26.63;;;10.00;;
77826;SDS011;67016;42.508;25.678;2023-02-26T01:23:30;32.20;;;11.35;;
77826;SDS011;67016;42.508;25.678;2023-02-26T01:28:23;36.90;;;14.55;;
77826;SDS011;67016;42.508;25.678;2023-02-26T01:30:50;35.90;;;14.02;;
77826;SDS011;67016;42.508;25.678;2023-02-26T01:36:02;36.40;;;12.70;;
77826;SDS011;67016;42.508;25.678;2023-02-26T01:41:42;36.95;;;16.52;;
77826;SDS011;67016;42.508;25.678;2023-02-26T01:46:55;60.33;;;30.88;;
77826;SDS011;67016;42.508;25.678;2023-02-26T01:49:37;34.13;;;14.02;;
77826;SDS011;67016;42.508;25.678;2023-02-26T01:52:04;30.95;;;13.57;;
77826;SDS011;67016;42.508;25.678;2023-02-26T01:54:37;34.72;;;13.18;;
77826;SDS011;67016;42.508;25.678;2023-02-26T01:57:04;30.17;;;12.23;;
77826;SDS011;67016;42.508;25.678;2023-02-26T01:59:45;32.97;;;12.60;;
77826;SDS011;67016;42.508;25.678;2023-02-26T02:02:15;38.10;;;14.30;;
77826;SDS011;67016;42.508;25.678;2023-02-26T02:04:42;34.17;;;13.10;;
77826;SDS011;67016;42.508;25.678;2023-02-26T02:07:09;24.63;;;10.70;;
77826;SDS011;67016;42.508;25.678;2023-02-26T02:09:35;34.25;;;12.13;;
77826;SDS011;67016;42.508;25.678;2023-02-26T02:17:17;30.58;;;11.50;;
77826;SDS011;67016;42.508;25.678;2023-02-26T02:22:39;29.95;;;11.02;;
77826;SDS011;67016;42.508;25.678;2023-02-26T02:27:51;28.65;;;11.95;;
77826;SDS011;67016;42.508;25.678;2023-02-26T02:33:17;31.77;;;11.43;;
77826;SDS011;67016;42.508;25.678;2023-02-26T02:35:45;26.67;;;10.77;;
77826;SDS011;67016;42.508;25.678;2023-02-26T02:38:20;31.75;;;10.65;;
77826;SDS011;67016;42.508;25.678;2023-02-26T02:40:50;26.85;;;10.25;;
77826;SDS011;67016;42.508;25.678;2023-02-26T02:43:19;30.17;;;11.88;;
77826;SDS011;67016;42.508;25.678;2023-02-26T02:46:03;34.55;;;11.88;;
77826;SDS011;67016;42.508;25.678;2023-02-26T02:48:32;28.90;;;10.90;;
77826;SDS011;67016;42.508;25.678;2023-02-26T02:51:11;33.75;;;11.52;;
77826;SDS011;67016;42.508;25.678;2023-02-26T02:53:46;32.22;;;11.30;;
77826;SDS011;67016;42.508;25.678;2023-02-26T02:56:29;21.43;;;11.33;;
77826;SDS011;67016;42.508;25.678;2023-02-26T02:59:09;28.85;;;12.35;;
77826;SDS011;67016;42.508;25.678;2023-02-26T03:01:36;29.05;;;11.70;;
77826;SDS011;67016;42.508;25.678;2023-02-26T03:06:32;38.50;;;11.97;;
77826;SDS011;67016;42.508;25.678;2023-02-26T03:08:58;33.10;;;11.95;;
77826;SDS011;67016;42.508;25.678;2023-02-26T03:11:25;32.40;;;10.98;;
77826;SDS011;67016;42.508;25.678;2023-02-26T03:13:51;42.72;;;11.52;;
77826;SDS011;67016;42.508;25.678;2023-02-26T03:21:52;41.42;;;10.55;;
77826;SDS011;67016;42.508;25.678;2023-02-26T03:24:35;33.65;;;10.05;;
77826;SDS011;67016;42.508;25.678;2023-02-26T03:27:12;33.45;;;10.60;;
77826;SDS011;67016;42.508;25.678;2023-02-26T03:29:49;38.05;;;11.48;;
77826;SDS011;67016;42.508;25.678;2023-02-26T03:32:22;33.80;;;11.57;;
77826;SDS011;67016;42.508;25.678;2023-02-26T03:34:53;32.17;;;11.02;;
77826;SDS011;67016;42.508;25.678;2023-02-26T03:37:43;36.22;;;10.60;;
77826;SDS011;67016;42.508;25.678;2023-02-26T03:40:23;38.15;;;10.52;;
77826;SDS011;67016;42.508;25.678;2023-02-26T03:42:56;36.83;;;9.68;;
77826;SDS011;67016;42.508;25.678;2023-02-26T03:45:44;38.43;;;11.27;;
77826;SDS011;67016;42.508;25.678;2023-02-26T03:48:12;28.95;;;8.52;;
77826;SDS011;67016;42.508;25.678;2023-02-26T03:50:47;37.42;;;9.98;;
77826;SDS011;67016;42.508;25.678;2023-02-26T03:53:16;32.97;;;9.80;;
77826;SDS011;67016;42.508;25.678;2023-02-26T03:55:46;30.63;;;9.05;;
77826;SDS011;67016;42.508;25.678;2023-02-26T03:58:33;36.58;;;10.82;;
77826;SDS011;67016;42.508;25.678;2023-02-26T04:01:01;27.92;;;8.68;;
77826;SDS011;67016;42.508;25.678;2023-02-26T04:03:43;29.43;;;10.43;;
77826;SDS011;67016;42.508;25.678;2023-02-26T04:06:12;33.85;;;10.60;;
77826;SDS011;67016;42.508;25.678;2023-02-26T04:08:38;36.78;;;10.00;;
77826;SDS011;67016;42.508;25.678;2023-02-26T04:11:05;38.20;;;9.85;;
77826;SDS011;67016;42.508;25.678;2023-02-26T04:13:33;30.23;;;8.70;;
77826;SDS011;67016;42.508;25.678;2023-02-26T04:15:59;33.13;;;8.25;;
77826;SDS011;67016;42.508;25.678;2023-02-26T04:18:24;24.40;;;8.45;;
77826;SDS011;67016;42.508;25.678;2023-02-26T04:20:50;31.92;;;8.52;;
77826;SDS011;67016;42.508;25.678;2023-02-26T04:23:16;35.40;;;10.68;;
77826;SDS011;67016;42.508;25.678;2023-02-26T04:25:43;37.53;;;10.25;;
77826;SDS011;67016;42.508;25.678;2023-02-26T04:28:09;25.35;;;8.43;;
77826;SDS011;67016;42.508;25.678;2023-02-26T04:30:35;33.92;;;9.98;;
77826;SDS011;67016;42.508;25.678;2023-02-26T04:33:01;35.58;;;9.57;;
77826;SDS011;67016;42.508;25.678;2023-02-26T04:35:27;29.25;;;10.25;;
77826;SDS011;67016;42.508;25.678;2023-02-26T04:37:53;26.52;;;8.80;;
77826;SDS011;67016;42.508;25.678;2023-02-26T04:40:18;26.85;;;8.75;;
77826;SDS011;67016;42.508;25.678;2023-02-26T04:42:44;37.25;;;9.50;;
77826;SDS011;67016;42.508;25.678;2023-02-26T04:45:10;30.05;;;9.20;;
77826;SDS011;67016;42.508;25.678;2023-02-26T04:47:35;24.95;;;8.23;;
77826;SDS011;67016;42.508;25.678;2023-02-26T04:50:02;26.20;;;8.50;;
77826;SDS011;67016;42.508;25.678;2023-02-26T04:52:28;33.03;;;9.68;;
77826;SDS011;67016;42.508;25.678;2023-02-26T04:54:54;29.52;;;9.70;;
77826;SDS011;67016;42.508;25.678;2023-02-26T04:57:19;29.95;;;9.55;;
77826;SDS011;67016;42.508;25.678;2023-02-26T04:59:45;31.15;;;9.38;;
77826;SDS011;67016;42.508;25.678;2023-02-26T05:02:11;34.80;;;9.25;;
77826;SDS011;67016;42.508;25.678;2023-02-26T05:04:37;29.27;;;9.00;;
77826;SDS011;67016;42.508;25.678;2023-02-26T05:07:02;32.58;;;9.50;;
77826;SDS011;67016;42.508;25.678;2023-02-26T05:09:28;31.92;;;9.80;;
77826;SDS011;67016;42.508;25.678;2023-02-26T05:11:53;27.98;;;8.95;;
77826;SDS011;67016;42.508;25.678;2023-02-26T05:14:19;28.52;;;10.13;;
77826;SDS011;67016;42.508;25.678;2023-02-26T05:16:45;30.92;;;9.60;;
77826;SDS011;67016;42.508;25.678;2023-02-26T05:19:10;24.48;;;10.02;;
77826;SDS011;67016;42.508;25.678;2023-02-26T05:21:36;31.77;;;9.85;;
77826;SDS011;67016;42.508;25.678;2023-02-26T05:24:02;26.30;;;8.73;;
77826;SDS011;67016;42.508;25.678;2023-02-26T05:26:27;29.30;;;9.82;;
77826;SDS011;67016;42.508;25.678;2023-02-26T05:28:53;31.65;;;9.88;;
77826;SDS011;67016;42.508;25.678;2023-02-26T05:31:19;32.30;;;11.07;;
77826;SDS011;67016;42.508;25.678;2023-02-26T05:33:44;31.90;;;9.30;;
77826;SDS011;67016;42.508;25.678;2023-02-26T05:36:10;25.92;;;8.90;;
77826;SDS011;67016;42.508;25.678;2023-02-26T05:38:36;22.08;;;8.85;;
77826;SDS011;67016;42.508;25.678;2023-02-26T05:41:02;29.80;;;8.82;;
77826;SDS011;67016;42.508;25.678;2023-02-26T05:43:28;33.05;;;9.60;;
77826;SDS011;67016;42.508;25.678;2023-02-26T05:45:54;23.42;;;9.45;;
77826;SDS011;67016;42.508;25.678;2023-02-26T05:48:20;33.25;;;10.90;;
77826;SDS011;67016;42.508;25.678;2023-02-26T05:50:49;26.90;;;9.55;;
77826;SDS011;67016;42.508;25.678;2023-02-26T05:53:16;32.80;;;10.73;;
77826;SDS011;67016;42.508;25.678;2023-02-26T05:55:42;33.70;;;9.95;;
77826;SDS011;67016;42.508;25.678;2023-02-26T05:58:07;31.13;;;10.77;;
77826;SDS011;67016;42.508;25.678;2023-02-26T06:00:33;31.50;;;9.93;;
77826;SDS011;67016;42.508;25.678;2023-02-26T06:02:58;27.45;;;9.80;;
77826;SDS011;67016;42.508;25.678;2023-02-26T06:05:24;32.05;;;10.35;;
77826;SDS011;67016;42.508;25.678;2023-02-26T06:07:50;28.85;;;9.55;;
77826;SDS011;67016;42.508;25.678;2023-02-26T06:10:15;33.97;;;10.00;;
77826;SDS011;67016;42.508;25.678;2023-02-26T06:12:41;40.70;;;11.20;;
77826;SDS011;67016;42.508;25.678;2023-02-26T06:15:08;38.90;;;11.10;;
77826;SDS011;67016;42.508;25.678;2023-02-26T06:17:35;36.47;;;10.00;;
77826;SDS011;67016;42.508;25.678;2023-02-26T06:20:01;29.52;;;9.82;;
77826;SDS011;67016;42.508;25.678;2023-02-26T06:22:27;29.92;;;10.25;;
77826;SDS011;67016;42.508;25.678;2023-02-26T06:24:53;33.22;;;10.73;;
77826;SDS011;67016;42.508;25.678;2023-02-26T06:27:20;31.48;;;9.90;;
77826;SDS011;67016;42.508;25.678;2023-02-26T06:29:46;29.38;;;10.10;;
77826;SDS011;67016;42.508;25.678;2023-02-26T06:32:12;27.60;;;11.30;;
77826;SDS011;67016;42.508;25.678;2023-02-26T06:34:37;33.97;;;11.75;;
77826;SDS011;67016;42.508;25.678;2023-02-26T06:37:03;30.13;;;10.98;;
77826;SDS011;67016;42.508;25.678;2023-02-26T06:39:28;31.20;;;9.60;;
77826;SDS011;67016;42.508;25.678;2023-02-26T06:41:54;36.38;;;9.00;;
77826;SDS011;67016;42.508;25.678;2023-02-26T06:44:20;25.98;;;9.23;;
77826;SDS011;67016;42.508;25.678;2023-02-26T06:46:45;25.40;;;10.02;;
77826;SDS011;67016;42.508;25.678;2023-02-26T06:49:11;36.28;;;9.45;;
77826;SDS011;67016;42.508;25.678;2023-02-26T06:51:37;26.27;;;8.20;;
77826;SDS011;67016;42.508;25.678;2023-02-26T06:54:02;32.15;;;10.23;;
77826;SDS011;67016;42.508;25.678;2023-02-26T06:56:28;24.70;;;8.75;;
77826;SDS011;67016;42.508;25.678;2023-02-26T06:58:53;35.63;;;10.25;;
77826;SDS011;67016;42.508;25.678;2023-02-26T07:01:19;35.50;;;10.80;;
77826;SDS011;67016;42.508;25.678;2023-02-26T07:03:45;41.67;;;10.52;;
77826;SDS011;67016;42.508;25.678;2023-02-26T07:06:10;24.77;;;8.80;;
77826;SDS011;67016;42.508;25.678;2023-02-26T07:08:37;29.70;;;9.70;;
77826;SDS011;67016;42.508;25.678;2023-02-26T07:11:03;29.42;;;9.57;;
77826;SDS011;67016;42.508;25.678;2023-02-26T07:13:29;27.77;;;8.55;;
77826;SDS011;67016;42.508;25.678;2023-02-26T07:15:55;30.85;;;9.13;;
77826;SDS011;67016;42.508;25.678;2023-02-26T07:18:21;34.10;;;8.65;;
77826;SDS011;67016;42.508;25.678;2023-02-26T07:20:50;37.30;;;10.07;;
77826;SDS011;67016;42.508;25.678;2023-02-26T07:23:16;29.90;;;9.23;;
77826;SDS011;67016;42.508;25.678;2023-02-26T07:25:42;30.25;;;9.10;;
77826;SDS011;67016;42.508;25.678;2023-02-26T07:28:08;37.97;;;9.90;;
77826;SDS011;67016;42.508;25.678;2023-02-26T07:30:33;27.63;;;8.45;;
77826;SDS011;67016;42.508;25.678;2023-02-26T07:32:59;31.15;;;9.48;;
77826;SDS011;67016;42.508;25.678;2023-02-26T07:35:25;33.25;;;8.88;;
77826;SDS011;67016;42.508;25.678;2023-02-26T07:37:51;39.72;;;10.02;;
77826;SDS011;67016;42.508;25.678;2023-02-26T07:40:17;33.35;;;10.18;;
77826;SDS011;67016;42.508;25.678;2023-02-26T07:42:43;43.33;;;9.65;;
77826;SDS011;67016;42.508;25.678;2023-02-26T07:45:09;38.30;;;8.82;;
77826;SDS011;67016;42.508;25.678;2023-02-26T07:47:35;38.60;;;9.35;;
77826;SDS011;67016;42.508;25.678;2023-02-26T07:50:01;27.20;;;8.95;;
77826;SDS011;67016;42.508;25.678;2023-02-26T07:52:27;27.38;;;8.07;;
77826;SDS011;67016;42.508;25.678;2023-02-26T07:54:53;32.40;;;8.45;;
77826;SDS011;67016;42.508;25.678;2023-02-26T07:57:19;29.27;;;8.20;;
77826;SDS011;67016;42.508;25.678;2023-02-26T07:59:44;31.52;;;7.90;;
77826;SDS011;67016;42.508;25.678;2023-02-26T08:02:11;27.88;;;7.78;;
77826;SDS011;67016;42.508;25.678;2023-02-26T08:04:37;27.08;;;7.45;;
77826;SDS011;67016;42.508;25.678;2023-02-26T08:07:03;26.08;;;8.02;;
77826;SDS011;67016;42.508;25.678;2023-02-26T08:09:29;24.50;;;6.80;;
77826;SDS011;67016;42.508;25.678;2023-02-26T08:11:54;24.50;;;6.82;;
77826;SDS011;67016;42.508;25.678;2023-02-26T08:14:20;23.67;;;5.85;;
77826;SDS011;67016;42.508;25.678;2023-02-26T08:16:46;35.50;;;7.47;;
77826;SDS011;67016;42.508;25.678;2023-02-26T08:19:12;19.55;;;6.65;;
77826;SDS011;67016;42.508;25.678;2023-02-26T08:21:39;29.60;;;6.50;;
77826;SDS011;67016;42.508;25.678;2023-02-26T08:24:06;22.75;;;6.25;;
77826;SDS011;67016;42.508;25.678;2023-02-26T08:26:35;21.88;;;6.38;;
77826;SDS011;67016;42.508;25.678;2023-02-26T08:29:03;29.55;;;7.93;;
77826;SDS011;67016;42.508;25.678;2023-02-26T08:31:30;25.20;;;6.70;;
77826;SDS011;67016;42.508;25.678;2023-02-26T08:33:59;22.73;;;6.28;;
77826;SDS011;67016;42.508;25.678;2023-02-26T08:36:25;25.88;;;7.38;;
77826;SDS011;67016;42.508;25.678;2023-02-26T08:38:50;18.02;;;5.95;;
77826;SDS011;67016;42.508;25.678;2023-02-26T08:41:16;16.58;;;5.05;;
77826;SDS011;67016;42.508;25.678;2023-02-26T08:43:42;21.23;;;6.47;;
77826;SDS011;67016;42.508;25.678;2023-02-26T08:46:14;23.23;;;6.28;;
77826;SDS011;67016;42.508;25.678;2023-02-26T08:48:45;19.38;;;5.80;;
77826;SDS011;67016;42.508;25.678;2023-02-26T08:51:10;15.90;;;5.75;;
77826;SDS011;67016;42.508;25.678;2023-02-26T08:53:36;18.30;;;6.90;;
77826;SDS011;67016;42.508;25.678;2023-02-26T08:56:01;21.73;;;6.07;;
77826;SDS011;67016;42.508;25.678;2023-02-26T08:58:27;23.38;;;6.63;;
77826;SDS011;67016;42.508;25.678;2023-02-26T09:00:53;17.00;;;6.15;;
77826;SDS011;67016;42.508;25.678;2023-02-26T09:03:18;24.77;;;7.15;;
77826;SDS011;67016;42.508;25.678;2023-02-26T09:05:44;25.30;;;6.35;;
77826;SDS011;67016;42.508;25.678;2023-02-26T09:08:10;18.10;;;6.05;;
77826;SDS011;67016;42.508;25.678;2023-02-26T09:10:39;20.50;;;6.80;;
77826;SDS011;67016;42.508;25.678;2023-02-26T09:13:04;26.08;;;6.35;;
77826;SDS011;67016;42.508;25.678;2023-02-26T09:15:30;26.92;;;6.45;;
77826;SDS011;67016;42.508;25.678;2023-02-26T09:17:56;25.65;;;6.28;;
77826;SDS011;67016;42.508;25.678;2023-02-26T09:20:22;18.55;;;5.55;;
77826;SDS011;67016;42.508;25.678;2023-02-26T09:22:47;22.35;;;5.40;;
77826;SDS011;67016;42.508;25.678;2023-02-26T09:25:13;24.65;;;6.03;;
77826;SDS011;67016;42.508;25.678;2023-02-26T09:27:39;26.63;;;5.60;;
77826;SDS011;67016;42.508;25.678;2023-02-26T09:30:05;20.63;;;5.72;;
77826;SDS011;67016;42.508;25.678;2023-02-26T09:32:31;18.58;;;5.57;;
77826;SDS011;67016;42.508;25.678;2023-02-26T09:34:57;20.13;;;5.45;;
77826;SDS011;67016;42.508;25.678;2023-02-26T09:37:23;19.10;;;5.10;;
77826;SDS011;67016;42.508;25.678;2023-02-26T09:39:48;23.38;;;5.45;;
77826;SDS011;67016;42.508;25.678;2023-02-26T09:45:01;29.88;;;5.70;;
77826;SDS011;67016;42.508;25.678;2023-02-26T09:47:30;24.73;;;5.50;;
77826;SDS011;67016;42.508;25.678;2023-02-26T09:50:08;16.88;;;4.45;;
77826;SDS011;67016;42.508;25.678;2023-02-26T09:53:01;19.90;;;4.45;;
77826;SDS011;67016;42.508;25.678;2023-02-26T09:55:35;20.75;;;6.10;;
77826;SDS011;67016;42.508;25.678;2023-02-26T09:58:28;19.30;;;5.88;;
77826;SDS011;67016;42.508;25.678;2023-02-26T10:11:19;22.70;;;5.20;;
77826;SDS011;67016;42.508;25.678;2023-02-26T10:16:44;18.70;;;5.70;;
77826;SDS011;67016;42.508;25.678;2023-02-26T10:19:22;16.25;;;5.97;;
77826;SDS011;67016;42.508;25.678;2023-02-26T10:21:56;24.00;;;6.07;;
77826;SDS011;67016;42.508;25.678;2023-02-26T10:24:30;19.20;;;4.28;;
77826;SDS011;67016;42.508;25.678;2023-02-26T10:27:04;14.23;;;4.75;;
77826;SDS011;67016;42.508;25.678;2023-02-26T10:29:57;19.60;;;5.75;;
77826;SDS011;67016;42.508;25.678;2023-02-26T10:32:33;19.20;;;5.82;;
77826;SDS011;67016;42.508;25.678;2023-02-26T10:35:03;24.02;;;6.05;;
77826;SDS011;67016;42.508;25.678;2023-02-26T10:37:46;23.52;;;5.90;;
77826;SDS011;67016;42.508;25.678;2023-02-26T10:40:22;19.45;;;5.35;;
77826;SDS011;67016;42.508;25.678;2023-02-26T10:42:54;15.10;;;4.10;;
77826;SDS011;67016;42.508;25.678;2023-02-26T10:48:16;21.23;;;4.80;;
77826;SDS011;67016;42.508;25.678;2023-02-26T10:50:56;15.77;;;4.97;;
77826;SDS011;67016;42.508;25.678;2023-02-26T10:53:24;19.48;;;5.03;;
77826;SDS011;67016;42.508;25.678;2023-02-26T10:58:31;21.23;;;4.78;;
77826;SDS011;67016;42.508;25.678;2023-02-26T11:00:57;25.30;;;4.60;;
77826;SDS011;67016;42.508;25.678;2023-02-26T11:03:31;18.38;;;4.78;;
77826;SDS011;67016;42.508;25.678;2023-02-26T11:05:59;17.23;;;4.28;;
77826;SDS011;67016;42.508;25.678;2023-02-26T11:08:31;15.75;;;4.63;;
77826;SDS011;67016;42.508;25.678;2023-02-26T11:10:59;15.18;;;4.85;;
77826;SDS011;67016;42.508;25.678;2023-02-26T11:13:27;23.00;;;5.28;;
77826;SDS011;67016;42.508;25.678;2023-02-26T11:15:56;15.50;;;4.13;;
77826;SDS011;67016;42.508;25.678;2023-02-26T11:18:27;20.95;;;4.95;;
77826;SDS011;67016;42.508;25.678;2023-02-26T11:21:00;22.67;;;5.35;;
77826;SDS011;67016;42.508;25.678;2023-02-26T11:23:29;22.45;;;4.97;;
77826;SDS011;67016;42.508;25.678;2023-02-26T11:26:03;19.58;;;5.72;;
77826;SDS011;67016;42.508;25.678;2023-02-26T11:28:35;21.25;;;5.93;;
77826;SDS011;67016;42.508;25.678;2023-02-26T11:31:08;30.38;;;5.57;;
77826;SDS011;67016;42.508;25.678;2023-02-26T11:33:39;18.23;;;4.13;;
77826;SDS011;67016;42.508;25.678;2023-02-26T11:36:19;15.05;;;5.05;;
77826;SDS011;67016;42.508;25.678;2023-02-26T11:38:46;21.00;;;4.78;;
77826;SDS011;67016;42.508;25.678;2023-02-26T11:41:18;16.77;;;4.07;;
77826;SDS011;67016;42.508;25.678;2023-02-26T11:43:46;19.73;;;4.75;;
77826;SDS011;67016;42.508;25.678;2023-02-26T11:46:13;27.92;;;4.63;;
77826;SDS011;67016;42.508;25.678;2023-02-26T11:48:46;16.08;;;3.92;;
77826;SDS011;67016;42.508;25.678;2023-02-26T11:51:13;29.05;;;5.47;;
77826;SDS011;67016;42.508;25.678;2023-02-26T11:53:42;13.20;;;4.63;;
77826;SDS011;67016;42.508;25.678;2023-02-26T11:56:26;14.25;;;3.90;;
77826;SDS011;67016;42.508;25.678;2023-02-26T11:58:57;20.45;;;4.07;;
77826;SDS011;67016;42.508;25.678;2023-02-26T12:01:28;13.73;;;4.38;;
77826;SDS011;67016;42.508;25.678;2023-02-26T12:03:56;25.85;;;5.88;;
77826;SDS011;67016;42.508;25.678;2023-02-26T12:06:27;16.63;;;4.38;;
77826;SDS011;67016;42.508;25.678;2023-02-26T12:08:53;18.23;;;5.45;;
77826;SDS011;67016;42.508;25.678;2023-02-26T12:19:45;20.10;;;5.57;;
77826;SDS011;67016;42.508;25.678;2023-02-26T12:30:32;21.40;;;4.90;;
77826;SDS011;67016;42.508;25.678;2023-02-26T12:35:55;25.77;;;4.60;;
77826;SDS011;67016;42.508;25.678;2023-02-26T12:41:53;37.22;;;5.72;;
77826;SDS011;67016;42.508;25.678;2023-02-26T12:50:25;22.02;;;5.05;;
77826;SDS011;67016;42.508;25.678;2023-02-26T12:53:19;23.37;;;5.50;;
77826;SDS011;67016;42.508;25.678;2023-02-26T12:56:10;27.58;;;5.40;;
77826;SDS011;67016;42.508;25.678;2023-02-26T12:58:50;15.80;;;4.90;;
77826;SDS011;67016;42.508;25.678;2023-02-26T13:06:57;19.10;;;4.65;;
77826;SDS011;67016;42.508;25.678;2023-02-26T13:12:38;28.92;;;5.75;;
77826;SDS011;67016;42.508;25.678;2023-02-26T13:20:30;27.08;;;4.90;;
77826;SDS011;67016;42.508;25.678;2023-02-26T13:23:07;16.45;;;4.78;;
77826;SDS011;67016;42.508;25.678;2023-02-26T13:30:46;24.48;;;5.07;;
77826;SDS011;67016;42.508;25.678;2023-02-26T13:35:44;29.80;;;5.57;;
77826;SDS011;67016;42.508;25.678;2023-02-26T13:38:17;25.65;;;5.03;;
77826;SDS011;67016;42.508;25.678;2023-02-26T13:40:59;19.67;;;4.53;;
77826;SDS011;67016;42.508;25.678;2023-02-26T13:51:47;18.02;;;4.50;;
77826;SDS011;67016;42.508;25.678;2023-02-26T13:56:48;27.83;;;5.95;;
77826;SDS011;67016;42.508;25.678;2023-02-26T14:04:53;28.40;;;6.20;;
77826;SDS011;67016;42.508;25.678;2023-02-26T14:10:32;21.45;;;5.50;;
77826;SDS011;67016;42.508;25.678;2023-02-26T14:13:08;24.50;;;5.55;;
77826;SDS011;67016;42.508;25.678;2023-02-26T14:15:51;23.08;;;4.95;;
77826;SDS011;67016;42.508;25.678;2023-02-26T14:18:25;26.70;;;5.38;;
77826;SDS011;67016;42.508;25.678;2023-02-26T14:26:27;23.58;;;5.13;;
77826;SDS011;67016;42.508;25.678;2023-02-26T14:29:06;30.00;;;5.18;;
77826;SDS011;67016;42.508;25.678;2023-02-26T14:34:15;32.03;;;5.25;;
77826;SDS011;67016;42.508;25.678;2023-02-26T14:36:53;20.30;;;5.45;;
77826;SDS011;67016;42.508;25.678;2023-02-26T14:39:22;13.80;;;4.30;;
77826;SDS011;67016;42.508;25.678;2023-02-26T14:41:49;21.23;;;5.10;;
77826;SDS011;67016;42.508;25.678;2023-02-26T14:46:46;34.20;;;9.57;;
77826;SDS011;67016;42.508;25.678;2023-02-26T14:49:31;25.75;;;7.88;;
77826;SDS011;67016;42.508;25.678;2023-02-26T14:54:42;30.38;;;6.60;;
77826;SDS011;67016;42.508;25.678;2023-02-26T14:57:39;31.25;;;11.20;;
77826;SDS011;67016;42.508;25.678;2023-02-26T15:00:16;38.28;;;11.23;;
77826;SDS011;67016;42.508;25.678;2023-02-26T15:03:36;58.80;;;21.08;;
77826;SDS011;67016;42.508;25.678;2023-02-26T15:05:55;40.35;;;10.75;;
77826;SDS011;67016;42.508;25.678;2023-02-26T15:11:48;151.93;;;69.50;;
77826;SDS011;67016;42.508;25.678;2023-02-26T15:17:32;141.40;;;66.13;;
77826;SDS011;67016;42.508;25.678;2023-02-26T15:22:56;26.95;;;8.93;;
77826;SDS011;67016;42.508;25.678;2023-02-26T15:25:35;21.65;;;7.00;;
77826;SDS011;67016;42.508;25.678;2023-02-26T15:28:04;23.42;;;7.07;;
77826;SDS011;67016;42.508;25.678;2023-02-26T15:30:41;32.80;;;7.22;;
77826;SDS011;67016;42.508;25.678;2023-02-26T15:33:11;22.92;;;7.13;;
77826;SDS011;67016;42.508;25.678;2023-02-26T15:35:38;23.42;;;6.72;;
77826;SDS011;67016;42.508;25.678;2023-02-26T15:38:04;22.02;;;5.60;;
77826;SDS011;67016;42.508;25.678;2023-02-26T15:40:33;29.77;;;7.10;;
77826;SDS011;67016;42.508;25.678;2023-02-26T15:43:02;24.67;;;5.70;;
77826;SDS011;67016;42.508;25.678;2023-02-26T15:45:37;34.72;;;7.10;;
77826;SDS011;67016;42.508;25.678;2023-02-26T15:48:30;22.27;;;6.55;;
77826;SDS011;67016;42.508;25.678;2023-02-26T15:50:57;22.15;;;5.45;;
77826;SDS011;67016;42.508;25.678;2023-02-26T15:56:22;31.13;;;6.63;;
77826;SDS011;67016;42.508;25.678;2023-02-26T15:58:52;35.90;;;6.68;;
77826;SDS011;67016;42.508;25.678;2023-02-26T16:01:22;26.92;;;6.38;;
77826;SDS011;67016;42.508;25.678;2023-02-26T16:03:55;32.75;;;6.93;;
77826;SDS011;67016;42.508;25.678;2023-02-26T16:06:29;23.20;;;6.45;;
77826;SDS011;67016;42.508;25.678;2023-02-26T16:08:55;23.92;;;5.50;;
77826;SDS011;67016;42.508;25.678;2023-02-26T16:11:22;23.85;;;5.13;;
77826;SDS011;67016;42.508;25.678;2023-02-26T16:13:49;14.48;;;4.47;;
77826;SDS011;67016;42.508;25.678;2023-02-26T16:19:05;23.95;;;5.75;;
77826;SDS011;67016;42.508;25.678;2023-02-26T16:21:32;25.70;;;5.97;;
77826;SDS011;67016;42.508;25.678;2023-02-26T16:24:00;18.48;;;5.05;;
77826;SDS011;67016;42.508;25.678;2023-02-26T16:29:01;19.40;;;6.28;;
77826;SDS011;67016;42.508;25.678;2023-02-26T16:31:31;23.73;;;5.95;;
77826;SDS011;67016;42.508;25.678;2023-02-26T16:34:00;23.52;;;5.20;;
77826;SDS011;67016;42.508;25.678;2023-02-26T16:36:31;26.55;;;5.40;;
77826;SDS011;67016;42.508;25.678;2023-02-26T16:41:35;23.30;;;4.97;;
77826;SDS011;67016;42.508;25.678;2023-02-26T16:44:03;20.50;;;6.18;;
77826;SDS011;67016;42.508;25.678;2023-02-26T16:47:03;23.05;;;4.95;;
77826;SDS011;67016;42.508;25.678;2023-02-26T16:49:32;22.67;;;4.32;;
77826;SDS011;67016;42.508;25.678;2023-02-26T16:51:59;17.20;;;4.40;;
77826;SDS011;67016;42.508;25.678;2023-02-26T16:54:35;23.23;;;5.32;;
77826;SDS011;67016;42.508;25.678;2023-02-26T16:59:51;27.15;;;5.68;;
77826;SDS011;67016;42.508;25.678;2023-02-26T17:02:24;27.20;;;5.03;;
77826;SDS011;67016;42.508;25.678;2023-02-26T17:04:53;29.92;;;5.78;;
77826;SDS011;67016;42.508;25.678;2023-02-26T17:07:31;23.08;;;6.45;;
77826;SDS011;67016;42.508;25.678;2023-02-26T17:10:22;28.20;;;6.28;;
77826;SDS011;67016;42.508;25.678;2023-02-26T17:20:23;32.40;;;6.45;;
77826;SDS011;67016;42.508;25.678;2023-02-26T17:26:47;21.52;;;5.68;;
77826;SDS011;67016;42.508;25.678;2023-02-26T17:30:02;24.98;;;5.43;;
77826;SDS011;67016;42.508;25.678;2023-02-26T17:33:40;20.05;;;5.68;;
77826;SDS011;67016;42.508;25.678;2023-02-26T17:44:45;22.52;;;5.65;;
77826;SDS011;67016;42.508;25.678;2023-02-26T17:48:44;21.92;;;7.10;;
77826;SDS011;67016;42.508;25.678;2023-02-26T17:51:44;29.05;;;6.57;;